sensor_id;sensor_type;location;lat;lon;timestamp;P1;durP1;ratioP1;P2;durP2;ratioP2
15681;SDS011;7941;50.966;6.978;2022-09-09T00:02:20;4.77;;;1.57;;
15681;SDS011;7941;50.966;6.978;2022-09-09T00:05:12;3.87;;;1.40;;
15681;SDS011;7941;50.966;6.978;2022-09-09T00:07:51;2.60;;;1.40;;
15681;SDS011;7941;50.966;6.978;2022-09-09T00:10:26;2.67;;;1.30;;
15681;SDS011;7941;50.966;6.978;2022-09-09T00:13:16;3.73;;;1.43;;
15681;SDS011;7941;50.966;6.978;2022-09-09T00:15:44;3.10;;;1.20;;
15681;SDS011;7941;50.966;6.978;2022-09-09T00:18:27;4.20;;;1.40;;
15681;SDS011;7941;50.966;6.978;2022-09-09T00:23:29;4.27;;;1.47;;
15681;SDS011;7941;50.966;6.978;2022-09-09T00:31:34;4.63;;;1.53;;
15681;SDS011;7941;50.966;6.978;2022-09-09T00:34:09;2.67;;;1.33;;
15681;SDS011;7941;50.966;6.978;2022-09-09T00:36:38;3.73;;;1.47;;
15681;SDS011;7941;50.966;6.978;2022-09-09T00:39:04;5.60;;;1.67;;
15681;SDS011;7941;50.966;6.978;2022-09-09T00:52:12;2.47;;;1.30;;
15681;SDS011;7941;50.966;6.978;2022-09-09T00:59:50;1.63;;;1.00;;
15681;SDS011;7941;50.966;6.978;2022-09-09T01:05:01;4.97;;;1.20;;
15681;SDS011;7941;50.966;6.978;2022-09-09T01:07:30;2.63;;;1.10;;
15681;SDS011;7941;50.966;6.978;2022-09-09T01:09:57;2.83;;;0.93;;
15681;SDS011;7941;50.966;6.978;2022-09-09T01:12:25;2.10;;;0.97;;
15681;SDS011;7941;50.966;6.978;2022-09-09T01:15:03;3.37;;;0.80;;
15681;SDS011;7941;50.966;6.978;2022-09-09T01:17:36;1.70;;;1.07;;
15681;SDS011;7941;50.966;6.978;2022-09-09T01:25:30;1.93;;;1.13;;
15681;SDS011;7941;50.966;6.978;2022-09-09T01:28:04;1.87;;;1.10;;
15681;SDS011;7941;50.966;6.978;2022-09-09T01:30:37;2.23;;;1.30;;
15681;SDS011;7941;50.966;6.978;2022-09-09T01:33:03;3.33;;;1.20;;
15681;SDS011;7941;50.966;6.978;2022-09-09T01:35:48;2.63;;;1.20;;
15681;SDS011;7941;50.966;6.978;2022-09-09T01:38:21;3.80;;;1.40;;
15681;SDS011;7941;50.966;6.978;2022-09-09T01:40:49;4.17;;;1.83;;
15681;SDS011;7941;50.966;6.978;2022-09-09T01:43:17;1.87;;;1.30;;
15681;SDS011;7941;50.966;6.978;2022-09-09T01:45:43;3.03;;;1.30;;
15681;SDS011;7941;50.966;6.978;2022-09-09T01:48:10;3.87;;;1.60;;
15681;SDS011;7941;50.966;6.978;2022-09-09T01:50:36;4.07;;;1.50;;
15681;SDS011;7941;50.966;6.978;2022-09-09T01:53:02;4.80;;;1.43;;
15681;SDS011;7941;50.966;6.978;2022-09-09T01:55:33;2.90;;;1.30;;
15681;SDS011;7941;50.966;6.978;2022-09-09T01:58:11;4.67;;;1.43;;
15681;SDS011;7941;50.966;6.978;2022-09-09T02:00:44;3.23;;;1.20;;
15681;SDS011;7941;50.966;6.978;2022-09-09T02:03:25;3.50;;;1.57;;
15681;SDS011;7941;50.966;6.978;2022-09-09T02:08:26;4.70;;;1.50;;
15681;SDS011;7941;50.966;6.978;2022-09-09T02:11:08;3.03;;;1.40;;
15681;SDS011;7941;50.966;6.978;2022-09-09T02:13:37;3.10;;;1.10;;
15681;SDS011;7941;50.966;6.978;2022-09-09T02:16:08;4.77;;;1.40;;
15681;SDS011;7941;50.966;6.978;2022-09-09T02:19:08;3.83;;;1.47;;
15681;SDS011;7941;50.966;6.978;2022-09-09T02:21:27;4.03;;;1.53;;
15681;SDS011;7941;50.966;6.978;2022-09-09T02:23:54;4.50;;;1.47;;
15681;SDS011;7941;50.966;6.978;2022-09-09T02:26:21;4.77;;;1.73;;
15681;SDS011;7941;50.966;6.978;2022-09-09T02:28:49;6.20;;;1.80;;
15681;SDS011;7941;50.966;6.978;2022-09-09T02:31:18;3.20;;;1.50;;
15681;SDS011;7941;50.966;6.978;2022-09-09T02:33:51;2.83;;;1.20;;
15681;SDS011;7941;50.966;6.978;2022-09-09T02:36:18;4.33;;;1.30;;
15681;SDS011;7941;50.966;6.978;2022-09-09T02:38:46;5.23;;;1.60;;
15681;SDS011;7941;50.966;6.978;2022-09-09T02:41:21;3.23;;;1.43;;
15681;SDS011;7941;50.966;6.978;2022-09-09T02:43:49;2.90;;;1.40;;
15681;SDS011;7941;50.966;6.978;2022-09-09T02:48:57;5.80;;;1.67;;
15681;SDS011;7941;50.966;6.978;2022-09-09T02:51:30;5.00;;;1.47;;
15681;SDS011;7941;50.966;6.978;2022-09-09T02:54:12;5.07;;;1.90;;
15681;SDS011;7941;50.966;6.978;2022-09-09T02:56:40;3.60;;;1.53;;
15681;SDS011;7941;50.966;6.978;2022-09-09T02:59:07;4.07;;;1.50;;
15681;SDS011;7941;50.966;6.978;2022-09-09T03:01:33;2.77;;;1.40;;
15681;SDS011;7941;50.966;6.978;2022-09-09T03:04:00;4.73;;;1.60;;
15681;SDS011;7941;50.966;6.978;2022-09-09T03:06:26;5.43;;;1.70;;
15681;SDS011;7941;50.966;6.978;2022-09-09T03:08:53;5.17;;;1.57;;
15681;SDS011;7941;50.966;6.978;2022-09-09T03:11:19;4.00;;;1.73;;
15681;SDS011;7941;50.966;6.978;2022-09-09T03:13:45;3.27;;;1.80;;
15681;SDS011;7941;50.966;6.978;2022-09-09T03:16:12;3.53;;;1.77;;
15681;SDS011;7941;50.966;6.978;2022-09-09T03:18:38;6.27;;;1.60;;
15681;SDS011;7941;50.966;6.978;2022-09-09T03:21:04;4.60;;;2.03;;
15681;SDS011;7941;50.966;6.978;2022-09-09T03:23:30;4.90;;;1.53;;
15681;SDS011;7941;50.966;6.978;2022-09-09T03:25:56;4.70;;;1.57;;
15681;SDS011;7941;50.966;6.978;2022-09-09T03:28:23;3.50;;;1.77;;
15681;SDS011;7941;50.966;6.978;2022-09-09T03:30:58;4.47;;;1.73;;
15681;SDS011;7941;50.966;6.978;2022-09-09T03:33:24;6.87;;;1.70;;
15681;SDS011;7941;50.966;6.978;2022-09-09T03:35:50;3.80;;;1.63;;
15681;SDS011;7941;50.966;6.978;2022-09-09T03:38:16;4.63;;;1.80;;
15681;SDS011;7941;50.966;6.978;2022-09-09T03:40:52;3.87;;;1.80;;
15681;SDS011;7941;50.966;6.978;2022-09-09T03:43:22;3.73;;;1.80;;
15681;SDS011;7941;50.966;6.978;2022-09-09T03:45:49;5.67;;;1.70;;
15681;SDS011;7941;50.966;6.978;2022-09-09T03:48:18;4.43;;;1.90;;
15681;SDS011;7941;50.966;6.978;2022-09-09T03:50:45;2.93;;;1.80;;
15681;SDS011;7941;50.966;6.978;2022-09-09T03:53:12;7.03;;;4.27;;
15681;SDS011;7941;50.966;6.978;2022-09-09T03:55:38;4.67;;;2.20;;
15681;SDS011;7941;50.966;6.978;2022-09-09T03:58:06;3.77;;;1.90;;
15681;SDS011;7941;50.966;6.978;2022-09-09T04:00:32;4.17;;;1.90;;
15681;SDS011;7941;50.966;6.978;2022-09-09T04:02:59;4.93;;;1.90;;
15681;SDS011;7941;50.966;6.978;2022-09-09T04:05:25;7.30;;;2.10;;
15681;SDS011;7941;50.966;6.978;2022-09-09T04:07:51;4.97;;;2.17;;
15681;SDS011;7941;50.966;6.978;2022-09-09T04:10:17;6.20;;;2.17;;
15681;SDS011;7941;50.966;6.978;2022-09-09T04:12:43;7.03;;;1.87;;
15681;SDS011;7941;50.966;6.978;2022-09-09T04:15:09;6.03;;;1.57;;
15681;SDS011;7941;50.966;6.978;2022-09-09T04:17:35;2.93;;;1.73;;
15681;SDS011;7941;50.966;6.978;2022-09-09T04:20:02;5.67;;;1.83;;
15681;SDS011;7941;50.966;6.978;2022-09-09T04:22:28;4.77;;;1.80;;
15681;SDS011;7941;50.966;6.978;2022-09-09T04:24:54;5.50;;;1.70;;
15681;SDS011;7941;50.966;6.978;2022-09-09T04:27:20;4.43;;;1.87;;
15681;SDS011;7941;50.966;6.978;2022-09-09T04:29:46;3.70;;;1.67;;
15681;SDS011;7941;50.966;6.978;2022-09-09T04:32:12;4.97;;;1.70;;
15681;SDS011;7941;50.966;6.978;2022-09-09T04:34:38;8.43;;;1.80;;
15681;SDS011;7941;50.966;6.978;2022-09-09T04:37:06;4.97;;;2.23;;
15681;SDS011;7941;50.966;6.978;2022-09-09T04:39:32;6.57;;;2.00;;
15681;SDS011;7941;50.966;6.978;2022-09-09T04:41:58;3.70;;;1.97;;
15681;SDS011;7941;50.966;6.978;2022-09-09T04:44:24;3.57;;;1.73;;
15681;SDS011;7941;50.966;6.978;2022-09-09T04:46:50;4.50;;;1.67;;
15681;SDS011;7941;50.966;6.978;2022-09-09T04:49:17;7.67;;;2.10;;
15681;SDS011;7941;50.966;6.978;2022-09-09T04:51:43;4.33;;;1.60;;
15681;SDS011;7941;50.966;6.978;2022-09-09T04:54:09;6.47;;;1.83;;
15681;SDS011;7941;50.966;6.978;2022-09-09T04:56:36;7.03;;;2.30;;
15681;SDS011;7941;50.966;6.978;2022-09-09T04:59:02;6.00;;;1.80;;
15681;SDS011;7941;50.966;6.978;2022-09-09T05:01:29;6.90;;;3.70;;
15681;SDS011;7941;50.966;6.978;2022-09-09T05:03:55;4.53;;;2.27;;
15681;SDS011;7941;50.966;6.978;2022-09-09T05:06:21;6.90;;;2.37;;
15681;SDS011;7941;50.966;6.978;2022-09-09T05:08:48;7.47;;;2.17;;
15681;SDS011;7941;50.966;6.978;2022-09-09T05:11:24;4.40;;;2.23;;
15681;SDS011;7941;50.966;6.978;2022-09-09T05:13:52;7.60;;;2.20;;
15681;SDS011;7941;50.966;6.978;2022-09-09T05:16:18;4.70;;;1.90;;
15681;SDS011;7941;50.966;6.978;2022-09-09T05:18:44;3.70;;;1.63;;
15681;SDS011;7941;50.966;6.978;2022-09-09T05:21:11;6.73;;;2.17;;
15681;SDS011;7941;50.966;6.978;2022-09-09T05:23:38;4.77;;;2.07;;
15681;SDS011;7941;50.966;6.978;2022-09-09T05:26:04;6.67;;;2.03;;
15681;SDS011;7941;50.966;6.978;2022-09-09T05:28:33;5.67;;;1.90;;
15681;SDS011;7941;50.966;6.978;2022-09-09T05:31:03;4.07;;;1.73;;
15681;SDS011;7941;50.966;6.978;2022-09-09T05:33:30;6.50;;;1.80;;
15681;SDS011;7941;50.966;6.978;2022-09-09T05:35:58;4.47;;;1.50;;
15681;SDS011;7941;50.966;6.978;2022-09-09T05:38:24;6.53;;;2.17;;
15681;SDS011;7941;50.966;6.978;2022-09-09T05:40:51;4.33;;;2.00;;
15681;SDS011;7941;50.966;6.978;2022-09-09T05:43:17;5.47;;;2.20;;
15681;SDS011;7941;50.966;6.978;2022-09-09T05:45:45;5.73;;;1.97;;
15681;SDS011;7941;50.966;6.978;2022-09-09T05:48:13;9.83;;;2.00;;
15681;SDS011;7941;50.966;6.978;2022-09-09T05:50:40;5.67;;;1.90;;
15681;SDS011;7941;50.966;6.978;2022-09-09T05:53:07;5.10;;;2.40;;
15681;SDS011;7941;50.966;6.978;2022-09-09T05:55:33;5.53;;;1.97;;
15681;SDS011;7941;50.966;6.978;2022-09-09T05:57:59;4.73;;;1.87;;
15681;SDS011;7941;50.966;6.978;2022-09-09T06:00:26;4.23;;;2.03;;
15681;SDS011;7941;50.966;6.978;2022-09-09T06:02:52;6.37;;;2.20;;
15681;SDS011;7941;50.966;6.978;2022-09-09T06:05:18;7.50;;;1.73;;
15681;SDS011;7941;50.966;6.978;2022-09-09T06:07:45;5.53;;;1.97;;
15681;SDS011;7941;50.966;6.978;2022-09-09T06:10:11;6.50;;;2.30;;
15681;SDS011;7941;50.966;6.978;2022-09-09T06:12:40;3.33;;;1.47;;
15681;SDS011;7941;50.966;6.978;2022-09-09T06:15:06;5.77;;;1.90;;
15681;SDS011;7941;50.966;6.978;2022-09-09T06:17:34;6.07;;;1.50;;
15681;SDS011;7941;50.966;6.978;2022-09-09T06:20:00;4.80;;;1.87;;
15681;SDS011;7941;50.966;6.978;2022-09-09T06:22:26;9.20;;;3.23;;
15681;SDS011;7941;50.966;6.978;2022-09-09T06:24:52;8.27;;;2.10;;
15681;SDS011;7941;50.966;6.978;2022-09-09T06:27:18;5.00;;;1.70;;
15681;SDS011;7941;50.966;6.978;2022-09-09T06:29:45;5.13;;;2.00;;
15681;SDS011;7941;50.966;6.978;2022-09-09T06:32:11;5.73;;;1.60;;
15681;SDS011;7941;50.966;6.978;2022-09-09T06:34:37;5.40;;;1.87;;
15681;SDS011;7941;50.966;6.978;2022-09-09T06:37:03;6.33;;;2.17;;
15681;SDS011;7941;50.966;6.978;2022-09-09T06:39:29;8.60;;;2.10;;
15681;SDS011;7941;50.966;6.978;2022-09-09T06:41:56;5.17;;;1.83;;
15681;SDS011;7941;50.966;6.978;2022-09-09T06:44:22;12.23;;;2.40;;
15681;SDS011;7941;50.966;6.978;2022-09-09T06:46:49;4.30;;;1.87;;
15681;SDS011;7941;50.966;6.978;2022-09-09T06:49:15;4.37;;;1.70;;
15681;SDS011;7941;50.966;6.978;2022-09-09T06:51:41;5.40;;;2.03;;
15681;SDS011;7941;50.966;6.978;2022-09-09T06:54:11;8.40;;;2.20;;
15681;SDS011;7941;50.966;6.978;2022-09-09T06:56:38;6.03;;;2.47;;
15681;SDS011;7941;50.966;6.978;2022-09-09T06:59:08;7.37;;;2.03;;
15681;SDS011;7941;50.966;6.978;2022-09-09T07:01:35;4.67;;;2.10;;
15681;SDS011;7941;50.966;6.978;2022-09-09T07:04:02;4.83;;;1.77;;
15681;SDS011;7941;50.966;6.978;2022-09-09T07:06:30;6.00;;;2.10;;
15681;SDS011;7941;50.966;6.978;2022-09-09T07:08:57;5.67;;;2.00;;
15681;SDS011;7941;50.966;6.978;2022-09-09T07:11:25;5.80;;;2.23;;
15681;SDS011;7941;50.966;6.978;2022-09-09T07:13:52;6.10;;;1.90;;
15681;SDS011;7941;50.966;6.978;2022-09-09T07:16:19;4.03;;;1.87;;
15681;SDS011;7941;50.966;6.978;2022-09-09T07:18:45;6.60;;;2.23;;
15681;SDS011;7941;50.966;6.978;2022-09-09T07:21:12;7.03;;;2.13;;
15681;SDS011;7941;50.966;6.978;2022-09-09T07:23:39;7.80;;;2.33;;
15681;SDS011;7941;50.966;6.978;2022-09-09T07:26:12;5.83;;;2.00;;
15681;SDS011;7941;50.966;6.978;2022-09-09T07:28:39;6.77;;;2.07;;
15681;SDS011;7941;50.966;6.978;2022-09-09T07:31:06;8.50;;;2.40;;
15681;SDS011;7941;50.966;6.978;2022-09-09T07:33:33;7.97;;;2.53;;
15681;SDS011;7941;50.966;6.978;2022-09-09T07:36:04;5.50;;;1.90;;
15681;SDS011;7941;50.966;6.978;2022-09-09T07:38:30;6.20;;;1.77;;
15681;SDS011;7941;50.966;6.978;2022-09-09T07:41:07;6.63;;;1.60;;
15681;SDS011;7941;50.966;6.978;2022-09-09T07:43:40;3.93;;;2.03;;
15681;SDS011;7941;50.966;6.978;2022-09-09T07:46:07;7.90;;;2.40;;
15681;SDS011;7941;50.966;6.978;2022-09-09T07:48:34;7.20;;;1.90;;
15681;SDS011;7941;50.966;6.978;2022-09-09T07:51:07;6.80;;;1.77;;
15681;SDS011;7941;50.966;6.978;2022-09-09T07:53:34;5.67;;;1.77;;
15681;SDS011;7941;50.966;6.978;2022-09-09T07:56:08;6.90;;;2.17;;
15681;SDS011;7941;50.966;6.978;2022-09-09T07:58:35;5.60;;;1.83;;
15681;SDS011;7941;50.966;6.978;2022-09-09T08:01:12;6.80;;;1.90;;
15681;SDS011;7941;50.966;6.978;2022-09-09T08:03:38;9.27;;;2.37;;
15681;SDS011;7941;50.966;6.978;2022-09-09T08:06:06;4.80;;;1.80;;
15681;SDS011;7941;50.966;6.978;2022-09-09T08:08:33;7.33;;;1.70;;
15681;SDS011;7941;50.966;6.978;2022-09-09T08:11:06;4.93;;;1.80;;
15681;SDS011;7941;50.966;6.978;2022-09-09T08:13:36;4.63;;;1.90;;
15681;SDS011;7941;50.966;6.978;2022-09-09T08:16:15;6.90;;;2.03;;
15681;SDS011;7941;50.966;6.978;2022-09-09T08:18:41;7.80;;;3.00;;
15681;SDS011;7941;50.966;6.978;2022-09-09T08:21:09;8.63;;;1.93;;
15681;SDS011;7941;50.966;6.978;2022-09-09T08:23:40;5.73;;;1.77;;
15681;SDS011;7941;50.966;6.978;2022-09-09T08:26:08;4.80;;;2.00;;
15681;SDS011;7941;50.966;6.978;2022-09-09T08:28:35;6.70;;;1.90;;
15681;SDS011;7941;50.966;6.978;2022-09-09T08:31:05;7.90;;;2.17;;
15681;SDS011;7941;50.966;6.978;2022-09-09T08:33:31;7.70;;;2.90;;
15681;SDS011;7941;50.966;6.978;2022-09-09T08:35:58;9.40;;;2.10;;
15681;SDS011;7941;50.966;6.978;2022-09-09T08:38:24;12.10;;;2.27;;
15681;SDS011;7941;50.966;6.978;2022-09-09T08:40:51;7.70;;;1.80;;
15681;SDS011;7941;50.966;6.978;2022-09-09T08:43:20;5.13;;;1.60;;
15681;SDS011;7941;50.966;6.978;2022-09-09T08:50:43;5.17;;;1.70;;
15681;SDS011;7941;50.966;6.978;2022-09-09T08:53:46;5.37;;;2.10;;
15681;SDS011;7941;50.966;6.978;2022-09-09T08:56:08;6.90;;;2.07;;
15681;SDS011;7941;50.966;6.978;2022-09-09T08:58:40;4.70;;;1.80;;
15681;SDS011;7941;50.966;6.978;2022-09-09T09:11:33;4.07;;;1.67;;
15681;SDS011;7941;50.966;6.978;2022-09-09T09:14:03;6.10;;;1.43;;
15681;SDS011;7941;50.966;6.978;2022-09-09T09:16:34;5.57;;;1.60;;
15681;SDS011;7941;50.966;6.978;2022-09-09T09:19:02;5.97;;;1.77;;
15681;SDS011;7941;50.966;6.978;2022-09-09T09:21:34;4.00;;;1.50;;
15681;SDS011;7941;50.966;6.978;2022-09-09T09:24:01;6.57;;;1.80;;
15681;SDS011;7941;50.966;6.978;2022-09-09T09:26:30;7.03;;;2.60;;
15681;SDS011;7941;50.966;6.978;2022-09-09T09:28:57;3.03;;;1.40;;
15681;SDS011;7941;50.966;6.978;2022-09-09T09:31:24;2.97;;;1.40;;
15681;SDS011;7941;50.966;6.978;2022-09-09T09:33:55;3.57;;;1.37;;
15681;SDS011;7941;50.966;6.978;2022-09-09T09:36:42;3.80;;;1.30;;
15681;SDS011;7941;50.966;6.978;2022-09-09T09:39:21;5.37;;;1.30;;
15681;SDS011;7941;50.966;6.978;2022-09-09T09:41:48;3.00;;;1.17;;
15681;SDS011;7941;50.966;6.978;2022-09-09T09:44:30;3.20;;;0.90;;
15681;SDS011;7941;50.966;6.978;2022-09-09T09:47:13;4.10;;;1.20;;
15681;SDS011;7941;50.966;6.978;2022-09-09T09:49:50;6.03;;;1.70;;
15681;SDS011;7941;50.966;6.978;2022-09-09T09:52:17;4.30;;;1.10;;
15681;SDS011;7941;50.966;6.978;2022-09-09T09:54:46;4.87;;;1.33;;
15681;SDS011;7941;50.966;6.978;2022-09-09T09:57:13;4.43;;;1.30;;
15681;SDS011;7941;50.966;6.978;2022-09-09T09:59:40;3.43;;;1.27;;
15681;SDS011;7941;50.966;6.978;2022-09-09T10:04:42;2.40;;;1.10;;
15681;SDS011;7941;50.966;6.978;2022-09-09T10:07:20;2.93;;;1.37;;
15681;SDS011;7941;50.966;6.978;2022-09-09T10:09:48;4.13;;;1.23;;
15681;SDS011;7941;50.966;6.978;2022-09-09T10:17:23;6.57;;;1.60;;
15681;SDS011;7941;50.966;6.978;2022-09-09T10:20:12;5.40;;;1.80;;
15681;SDS011;7941;50.966;6.978;2022-09-09T10:22:39;4.83;;;1.27;;
15681;SDS011;7941;50.966;6.978;2022-09-09T10:40:34;7.17;;;1.60;;
15681;SDS011;7941;50.966;6.978;2022-09-09T10:43:11;3.47;;;1.33;;
15681;SDS011;7941;50.966;6.978;2022-09-09T10:48:30;2.97;;;1.27;;
15681;SDS011;7941;50.966;6.978;2022-09-09T10:53:43;4.47;;;1.47;;
15681;SDS011;7941;50.966;6.978;2022-09-09T10:56:12;4.90;;;1.30;;
15681;SDS011;7941;50.966;6.978;2022-09-09T10:58:44;5.20;;;1.17;;
15681;SDS011;7941;50.966;6.978;2022-09-09T11:01:36;2.73;;;1.13;;
15681;SDS011;7941;50.966;6.978;2022-09-09T11:04:04;2.87;;;1.33;;
15681;SDS011;7941;50.966;6.978;2022-09-09T11:06:34;2.70;;;1.10;;
15681;SDS011;7941;50.966;6.978;2022-09-09T11:09:02;1.87;;;0.97;;
15681;SDS011;7941;50.966;6.978;2022-09-09T11:21:37;2.43;;;1.20;;
15681;SDS011;7941;50.966;6.978;2022-09-09T11:24:08;2.70;;;0.90;;
15681;SDS011;7941;50.966;6.978;2022-09-09T11:26:39;4.37;;;1.50;;
15681;SDS011;7941;50.966;6.978;2022-09-09T11:41:50;3.43;;;1.10;;
15681;SDS011;7941;50.966;6.978;2022-09-09T11:44:27;2.90;;;1.33;;
15681;SDS011;7941;50.966;6.978;2022-09-09T11:46:54;3.10;;;1.10;;
15681;SDS011;7941;50.966;6.978;2022-09-09T11:51:56;4.13;;;1.40;;
15681;SDS011;7941;50.966;6.978;2022-09-09T11:54:47;2.80;;;0.97;;
15681;SDS011;7941;50.966;6.978;2022-09-09T11:57:34;3.07;;;1.00;;
15681;SDS011;7941;50.966;6.978;2022-09-09T12:00:01;1.57;;;0.80;;
15681;SDS011;7941;50.966;6.978;2022-09-09T12:02:28;1.53;;;0.90;;
15681;SDS011;7941;50.966;6.978;2022-09-09T12:05:02;3.40;;;1.47;;
15681;SDS011;7941;50.966;6.978;2022-09-09T12:12:30;2.20;;;1.13;;
15681;SDS011;7941;50.966;6.978;2022-09-09T12:17:23;4.03;;;1.47;;
15681;SDS011;7941;50.966;6.978;2022-09-09T12:22:41;3.40;;;1.37;;
15681;SDS011;7941;50.966;6.978;2022-09-09T12:30:22;4.87;;;1.30;;
15681;SDS011;7941;50.966;6.978;2022-09-09T12:33:12;3.63;;;1.20;;
15681;SDS011;7941;50.966;6.978;2022-09-09T12:35:38;3.87;;;1.00;;
15681;SDS011;7941;50.966;6.978;2022-09-09T12:38:06;4.80;;;1.67;;
15681;SDS011;7941;50.966;6.978;2022-09-09T12:40:36;5.63;;;2.57;;
15681;SDS011;7941;50.966;6.978;2022-09-09T12:43:20;2.50;;;0.97;;
15681;SDS011;7941;50.966;6.978;2022-09-09T12:45:47;2.67;;;1.00;;
15681;SDS011;7941;50.966;6.978;2022-09-09T12:48:15;4.07;;;1.33;;
15681;SDS011;7941;50.966;6.978;2022-09-09T12:50:46;4.47;;;1.57;;
15681;SDS011;7941;50.966;6.978;2022-09-09T12:53:18;2.53;;;1.10;;
15681;SDS011;7941;50.966;6.978;2022-09-09T12:58:24;6.83;;;1.50;;
15681;SDS011;7941;50.966;6.978;2022-09-09T13:00:51;5.60;;;1.40;;
15681;SDS011;7941;50.966;6.978;2022-09-09T13:03:19;4.90;;;1.47;;
15681;SDS011;7941;50.966;6.978;2022-09-09T13:05:49;2.63;;;1.10;;
15681;SDS011;7941;50.966;6.978;2022-09-09T13:08:16;3.33;;;1.40;;
15681;SDS011;7941;50.966;6.978;2022-09-09T13:11:02;3.27;;;1.20;;
15681;SDS011;7941;50.966;6.978;2022-09-09T13:13:37;2.70;;;1.00;;
15681;SDS011;7941;50.966;6.978;2022-09-09T13:16:04;3.17;;;1.23;;
15681;SDS011;7941;50.966;6.978;2022-09-09T13:18:33;2.83;;;0.70;;
15681;SDS011;7941;50.966;6.978;2022-09-09T13:20:59;3.50;;;1.07;;
15681;SDS011;7941;50.966;6.978;2022-09-09T13:23:33;1.93;;;1.20;;
15681;SDS011;7941;50.966;6.978;2022-09-09T13:26:04;5.37;;;1.60;;
15681;SDS011;7941;50.966;6.978;2022-09-09T13:28:32;2.17;;;1.10;;
15681;SDS011;7941;50.966;6.978;2022-09-09T13:31:04;4.30;;;1.23;;
15681;SDS011;7941;50.966;6.978;2022-09-09T13:33:36;7.17;;;1.80;;
15681;SDS011;7941;50.966;6.978;2022-09-09T13:36:09;5.50;;;1.10;;
15681;SDS011;7941;50.966;6.978;2022-09-09T13:38:37;5.03;;;1.23;;
15681;SDS011;7941;50.966;6.978;2022-09-09T13:41:04;4.87;;;1.40;;
15681;SDS011;7941;50.966;6.978;2022-09-09T13:43:53;1.80;;;0.90;;
15681;SDS011;7941;50.966;6.978;2022-09-09T13:49:03;2.67;;;1.10;;
15681;SDS011;7941;50.966;6.978;2022-09-09T13:51:45;4.97;;;1.00;;
15681;SDS011;7941;50.966;6.978;2022-09-09T13:54:15;1.43;;;0.63;;
15681;SDS011;7941;50.966;6.978;2022-09-09T13:56:42;4.00;;;1.30;;
15681;SDS011;7941;50.966;6.978;2022-09-09T13:59:09;2.07;;;0.90;;
15681;SDS011;7941;50.966;6.978;2022-09-09T14:01:36;1.63;;;0.83;;
15681;SDS011;7941;50.966;6.978;2022-09-09T14:04:03;2.40;;;0.90;;
15681;SDS011;7941;50.966;6.978;2022-09-09T14:06:31;2.33;;;0.93;;
15681;SDS011;7941;50.966;6.978;2022-09-09T14:08:57;4.00;;;1.27;;
15681;SDS011;7941;50.966;6.978;2022-09-09T14:11:23;3.60;;;0.90;;
15681;SDS011;7941;50.966;6.978;2022-09-09T14:13:49;2.10;;;0.80;;
15681;SDS011;7941;50.966;6.978;2022-09-09T14:16:19;1.60;;;0.70;;
15681;SDS011;7941;50.966;6.978;2022-09-09T14:18:46;1.53;;;0.80;;
15681;SDS011;7941;50.966;6.978;2022-09-09T14:21:13;2.20;;;1.00;;
15681;SDS011;7941;50.966;6.978;2022-09-09T14:23:40;2.87;;;0.90;;
15681;SDS011;7941;50.966;6.978;2022-09-09T14:26:07;2.77;;;1.03;;
15681;SDS011;7941;50.966;6.978;2022-09-09T14:28:33;2.30;;;1.17;;
15681;SDS011;7941;50.966;6.978;2022-09-09T14:31:00;2.93;;;0.93;;
15681;SDS011;7941;50.966;6.978;2022-09-09T14:33:27;1.40;;;0.77;;
15681;SDS011;7941;50.966;6.978;2022-09-09T14:35:57;2.93;;;0.87;;
15681;SDS011;7941;50.966;6.978;2022-09-09T14:38:23;3.93;;;0.97;;
15681;SDS011;7941;50.966;6.978;2022-09-09T14:40:49;2.67;;;1.40;;
15681;SDS011;7941;50.966;6.978;2022-09-09T14:43:15;1.77;;;1.20;;
15681;SDS011;7941;50.966;6.978;2022-09-09T14:45:41;3.53;;;1.77;;
15681;SDS011;7941;50.966;6.978;2022-09-09T14:48:08;3.60;;;1.37;;
15681;SDS011;7941;50.966;6.978;2022-09-09T14:50:34;5.50;;;1.90;;
15681;SDS011;7941;50.966;6.978;2022-09-09T14:53:04;6.10;;;1.97;;
15681;SDS011;7941;50.966;6.978;2022-09-09T14:55:30;4.47;;;2.20;;
15681;SDS011;7941;50.966;6.978;2022-09-09T14:57:56;4.90;;;2.10;;
15681;SDS011;7941;50.966;6.978;2022-09-09T15:00:23;3.37;;;2.30;;
15681;SDS011;7941;50.966;6.978;2022-09-09T15:02:53;4.10;;;2.07;;
15681;SDS011;7941;50.966;6.978;2022-09-09T15:05:19;5.63;;;2.00;;
15681;SDS011;7941;50.966;6.978;2022-09-09T15:07:45;3.67;;;2.07;;
15681;SDS011;7941;50.966;6.978;2022-09-09T15:10:13;4.40;;;2.30;;
15681;SDS011;7941;50.966;6.978;2022-09-09T15:12:40;2.87;;;2.07;;
15681;SDS011;7941;50.966;6.978;2022-09-09T15:15:07;3.83;;;2.30;;
15681;SDS011;7941;50.966;6.978;2022-09-09T15:17:33;3.70;;;1.67;;
15681;SDS011;7941;50.966;6.978;2022-09-09T15:20:00;5.03;;;2.13;;
15681;SDS011;7941;50.966;6.978;2022-09-09T15:22:26;1.87;;;1.60;;
15681;SDS011;7941;50.966;6.978;2022-09-09T15:24:52;3.20;;;1.43;;
15681;SDS011;7941;50.966;6.978;2022-09-09T15:27:18;3.93;;;1.80;;
15681;SDS011;7941;50.966;6.978;2022-09-09T15:29:45;3.80;;;1.53;;
15681;SDS011;7941;50.966;6.978;2022-09-09T15:32:12;3.40;;;1.90;;
15681;SDS011;7941;50.966;6.978;2022-09-09T15:34:38;3.43;;;1.70;;
15681;SDS011;7941;50.966;6.978;2022-09-09T15:37:04;4.00;;;2.10;;
15681;SDS011;7941;50.966;6.978;2022-09-09T15:39:31;2.50;;;1.70;;
15681;SDS011;7941;50.966;6.978;2022-09-09T15:41:59;3.97;;;1.80;;
15681;SDS011;7941;50.966;6.978;2022-09-09T15:44:25;3.77;;;1.73;;
15681;SDS011;7941;50.966;6.978;2022-09-09T15:46:52;4.00;;;1.80;;
15681;SDS011;7941;50.966;6.978;2022-09-09T15:49:25;3.43;;;2.30;;
15681;SDS011;7941;50.966;6.978;2022-09-09T15:51:52;3.13;;;1.80;;
15681;SDS011;7941;50.966;6.978;2022-09-09T15:54:19;4.80;;;1.83;;
15681;SDS011;7941;50.966;6.978;2022-09-09T15:56:49;3.40;;;1.63;;
15681;SDS011;7941;50.966;6.978;2022-09-09T15:59:16;4.07;;;1.87;;
15681;SDS011;7941;50.966;6.978;2022-09-09T16:01:42;3.80;;;1.73;;
15681;SDS011;7941;50.966;6.978;2022-09-09T16:04:08;2.70;;;1.10;;
15681;SDS011;7941;50.966;6.978;2022-09-09T16:06:35;2.17;;;1.20;;
15681;SDS011;7941;50.966;6.978;2022-09-09T16:09:03;3.73;;;1.30;;
15681;SDS011;7941;50.966;6.978;2022-09-09T16:11:30;1.27;;;1.17;;
15681;SDS011;7941;50.966;6.978;2022-09-09T16:13:57;2.37;;;1.10;;
15681;SDS011;7941;50.966;6.978;2022-09-09T16:16:25;1.60;;;1.40;;
15681;SDS011;7941;50.966;6.978;2022-09-09T16:18:53;3.97;;;1.30;;
15681;SDS011;7941;50.966;6.978;2022-09-09T16:21:21;2.60;;;1.40;;
15681;SDS011;7941;50.966;6.978;2022-09-09T16:23:47;4.13;;;2.50;;
15681;SDS011;7941;50.966;6.978;2022-09-09T16:26:15;3.27;;;1.47;;
15681;SDS011;7941;50.966;6.978;2022-09-09T16:28:41;3.00;;;1.23;;
15681;SDS011;7941;50.966;6.978;2022-09-09T16:31:09;2.37;;;1.30;;
15681;SDS011;7941;50.966;6.978;2022-09-09T16:33:36;3.10;;;1.17;;
15681;SDS011;7941;50.966;6.978;2022-09-09T16:36:06;2.20;;;1.43;;
15681;SDS011;7941;50.966;6.978;2022-09-09T16:38:33;3.20;;;1.30;;
15681;SDS011;7941;50.966;6.978;2022-09-09T16:41:00;2.90;;;1.27;;
15681;SDS011;7941;50.966;6.978;2022-09-09T16:43:27;2.60;;;1.00;;
15681;SDS011;7941;50.966;6.978;2022-09-09T16:45:53;5.73;;;1.40;;
15681;SDS011;7941;50.966;6.978;2022-09-09T16:48:19;1.73;;;1.00;;
15681;SDS011;7941;50.966;6.978;2022-09-09T16:50:45;3.23;;;1.33;;
15681;SDS011;7941;50.966;6.978;2022-09-09T16:53:11;1.70;;;1.40;;
15681;SDS011;7941;50.966;6.978;2022-09-09T16:55:40;1.97;;;1.30;;
15681;SDS011;7941;50.966;6.978;2022-09-09T16:58:08;2.87;;;1.40;;
15681;SDS011;7941;50.966;6.978;2022-09-09T17:00:35;3.73;;;1.27;;
15681;SDS011;7941;50.966;6.978;2022-09-09T17:03:02;6.03;;;1.27;;
15681;SDS011;7941;50.966;6.978;2022-09-09T17:05:28;2.60;;;1.30;;
15681;SDS011;7941;50.966;6.978;2022-09-09T17:07:54;4.33;;;1.30;;
15681;SDS011;7941;50.966;6.978;2022-09-09T17:10:24;3.10;;;1.27;;
15681;SDS011;7941;50.966;6.978;2022-09-09T17:12:51;2.10;;;1.60;;
15681;SDS011;7941;50.966;6.978;2022-09-09T17:15:17;2.83;;;2.03;;
15681;SDS011;7941;50.966;6.978;2022-09-09T17:17:44;2.87;;;1.83;;
15681;SDS011;7941;50.966;6.978;2022-09-09T17:20:14;3.83;;;2.07;;